x

West Moresby (46208) Wave Buoy

10:00pm - Thu 18th Dec 2014 All times are PST. -8 hours from GMT.

  • Sig Wave height 16.1ft
  • Peak Period 10s
  • Wind
    18mph, 22mph gusts
  • Sea Temp 50°f
  • Air Temp 49°f
  • Sea Pressure 991.6mb
  • West Moresby
  • West Moresby

More Historic Weather Station data

Upgrade to MSW Pro to gain access to the past 30 days of data for over 8000 Wavebouys and Weather Stations around the globe.

Join Pro

Comparision Forecast

View Surf forecast
   
Thu 12/18 10:00pm 16ft 10s 18 22 mph 991.6mb 50f 49f
9:00pm 16ft 10s 16 20 mph 991.3mb 50f 49f
8:00pm 16.5ft 12s 16 18 mph 990.8mb 50f 48f
7:00pm 18.5ft 12s 13 18 mph 990.4mb 50f 48f
6:00pm 16.5ft 11s 13 18 mph 990.1mb 50f 49f
5:00pm 16.5ft 12s 13 20 mph 990.3mb 50f 47f
4:00pm 19.5ft 12s 11 13 mph 990.1mb 50f 47f
3:00pm 20.5ft 12s 9 13 mph 990.1mb 50f 47f
2:00pm 18.5ft 12s 4 11 mph 989.9mb 50f 47f
1:00pm 20.5ft 12s 9 13 mph 989.7mb 50f 48f
12:00pm 22.5ft 12s 9 18 mph 989mb 50f 47f
11:00am 25ft 11s 20 29 mph 988.3mb 50f 46f
10:00am 24.5ft 12s 43 54 mph 985.5mb 50f 49f
9:00am 22ft 11s 43 54 mph 985.5mb 50f 49f
8:00am 19.5ft 10s 43 58 mph 986mb 50f 49f
7:00am 17.5ft 8s 43 54 mph 987mb 50f 48f
6:00am 15.5ft 7s 43 54 mph 988.6mb 50f 48f
5:00am 13ft 7s 38 49 mph 990.4mb 50f 49f
4:00am 11.5ft 7s 31 40 mph 992.9mb 50f 47f
3:00am  -   -  31
mph
994.6mb - 48f
2:00am 11ft 7s 31 36 mph 996.2mb 50f 49f
1:00am 11ft 12s 31 38 mph 997.1mb 50f 49f
12:00am 11ft 11s 27 36 mph 998.6mb 50f 49f
Wed 12/17 11:00pm 11ft 12s 27 34 mph 999.5mb 50f 48f
10:00pm 10ft 13s 25 34 mph 1000.7mb 50f 47f
9:00pm 9.5ft 12s 22 29 mph 1001.5mb 50f 48f
8:00pm 10.5ft 13s 22 29 mph 1002.4mb 50f 48f
7:00pm 11ft 13s 20 25 mph 1002.6mb 50f 48f
6:00pm 10.5ft 14s 18 22 mph 1002.5mb 50f 48f
5:00pm 10ft 14s 18 22 mph 1003.1mb 49f 48f
4:00pm 10.5ft 14s 13 18 mph 1003.5mb 49f 48f
3:00pm 11ft 14s 16 18 mph 1003.5mb 49f 48f
2:00pm 11ft 14s 13 18 mph 1003.8mb 49f 47f
1:00pm 12ft 8s 16 20 mph 1004mb 49f 46f
12:00pm 13ft 14s 22 27 mph 1003.9mb 49f 46f
11:00am 12.5ft 14s 27 36 mph 1004.1mb 49f 47f
10:00am 11ft 14s 27 36 mph 1003.9mb 49f 48f
9:00am 11.5ft 14s 27 34 mph 1003.9mb 49f 48f
8:00am 11.5ft 14s 29 34 mph 1003.6mb 49f 48f
7:00am 12ft 15s 27 34 mph 1003.8mb 49f 48f
6:00am 12ft 14s 27 31 mph 1004.3mb 49f 48f
5:00am 11.5ft 15s 22 29 mph 1004.6mb 49f 48f
3:00am 12ft 14s 20 27 mph 1004.7mb 50f 47f
2:00am 12ft 14s 18 22 mph 1004.6mb 50f 47f
1:00am 12ft 14s 18 22 mph 1004.3mb 50f 47f
12:00am 13ft 15s 18 20 mph 1004.4mb 49f 47f
Tue 12/16 11:00pm 12.5ft 13s 16 18 mph 1004.6mb 49f 47f
10:00pm 12ft 15s 13 18 mph 1004.9mb 49f 46f
9:00pm 13ft 11s 9 18 mph 1004.8mb 50f 46f
8:00pm 13.5ft 14s 2 7 mph 1005mb 49f 45f
7:00pm 13ft 14s 9 13 mph 1004.7mb 49f 47f
6:00pm 13ft 14s 9 13 mph 1004.6mb 49f 46f
5:00pm 15ft 10s 7 9 mph 1004.6mb 49f 46f
4:00pm 14ft 14s 9 13 mph 1004.7mb 49f 46f
3:00pm 14.5ft 14s 11 16 mph 1004.6mb 49f 46f
2:00pm 15ft 14s 13 16 mph 1004.1mb 49f 46f
1:00pm 14.5ft 13s 13 18 mph 1003.8mb 50f 47f
12:00pm 13.5ft 10s 11 16 mph 1003.8mb 50f 47f
11:00am 12ft 12s 11 13 mph 1003.5mb 50f 47f
10:00am 12ft 12s 9 11 mph 1003.3mb 50f 47f
9:00am 13ft 10s 4 9 mph 1002.8mb 50f 46f
8:00am 11.5ft 11s 2 7 mph 1002.6mb 50f 45f
7:00am 12.5ft 10s 18 22 mph 1002.1mb 50f 46f
6:00am 12ft 12s 11 16 mph 1002.1mb 50f 47f
5:00am 12.5ft 12s 11 13 mph 1001.8mb 50f 47f
4:00am 11.5ft 12s 9 11 mph 1001.8mb 50f 48f
3:00am 11.5ft 11s 11 13 mph 1001.8mb 50f 48f
2:00am 11ft 10s 9 13 mph 1001.6mb 50f 48f
1:00am 12ft 11s 13 16 mph 1001.5mb 50f 48f
12:00am 12ft 11s 11 13 mph 1001.3mb 49f 48f
Mon 12/15 11:00pm 12.5ft 11s 13 16 mph 1001.2mb 49f 49f
10:00pm 14.5ft 11s 13 18 mph 1000.9mb 49f 48f
9:00pm 15ft 11s 13 18 mph 1000.5mb 49f 48f
8:00pm 15.5ft 12s 11 13 mph 1000.1mb 49f 47f
7:00pm 15.5ft 11s 18 20 mph 999.8mb 49f 48f
6:00pm 15ft 12s 18 22 mph 999.5mb 49f 48f
5:00pm 15ft 12s 22 27 mph 999.3mb 49f 47f
4:00pm 16.5ft 11s 27 36 mph 998.8mb 49f 49f
3:00pm 16.5ft 12s 29 34 mph 998.3mb 49f 49f
2:00pm 19.5ft 12s 25 31 mph 998.1mb 49f 49f
1:00pm 20ft 12s 22 27 mph 998mb 49f 49f
12:00pm 20.5ft 12s 20 29 mph 998mb 49f 49f
11:00am 20.5ft 13s 22 29 mph 996.9mb 49f 49f
10:00am 21.5ft 12s 31 40 mph 994.9mb 49f 49f
9:00am 22ft 11s 36 47 mph 995.3mb 49f 50f
8:00am 22.5ft 11s 36 45 mph 996.1mb 49f 49f